Time;durP1;ratioP1;P1;durP2;ratioP2;P2;SDS_P1;SDS_P2;PMS_P1;PMS_P2;Temp;Humidity;BMP_temperature;BMP_pressure;BME280_temperature;BME280_humidity;BME280_pressure;Samples;Min_cycle;Max_cycle;Signal;HPM_P1;HPM_P2
2023/03/28 00:00:12;;;;;;;12.30;5.80;;;;;;;-2.95;70.62;99447.17;219393;1254;142159;-62
2023/03/28 00:05:40;;;;;;;19.10;8.70;;;;;;;-3.03;70.31;99442.04;219585;1254;140047;-61
2023/03/28 00:10:44;;;;;;;22.50;9.60;;;;;;;-3.09;70.74;99442.78;218948;1253;141860;-62
2023/03/28 00:15:51;;;;;;;17.80;8.30;;;;;;;-3.06;70.89;99437.98;220078;1252;139326;-62
2023/03/28 00:20:55;;;;;;;18.70;7.30;;;;;;;-3.02;70.98;99436.54;219670;1253;139551;-61
2023/03/28 00:26:06;;;;;;;14.10;6.90;;;;;;;-3.04;71.15;99431.83;219574;1254;139791;-62
2023/03/28 00:31:11;;;;;;;13.10;6.00;;;;;;;-3.03;70.99;99437.53;220559;1254;141911;-63
2023/03/28 00:36:25;;;;;;;11.30;6.20;;;;;;;-3.02;71.33;99433.38;221110;1254;139559;-65
2023/03/28 00:41:32;;;;;;;13.90;6.90;;;;;;;-3.00;71.13;99437.04;221093;1254;140732;-63
2023/03/28 00:46:40;;;;;;;11.40;6.60;;;;;;;-2.95;71.17;99441.02;220302;1254;140422;-62
2023/03/28 00:51:49;;;;;;;14.30;8.30;;;;;;;-2.91;71.01;99447.45;221002;1253;140399;-64
2023/03/28 00:57:00;;;;;;;16.10;8.90;;;;;;;-2.88;71.08;99435.31;221151;1252;139476;-63
2023/03/28 01:02:05;;;;;;;18.50;9.00;;;;;;;-2.84;70.98;99431.46;220327;1254;140707;-62
2023/03/28 01:07:09;;;;;;;23.20;9.50;;;;;;;-2.83;71.21;99423.86;219939;1254;140106;-62
2023/03/28 01:12:16;;;;;;;10.00;5.90;;;;;;;-2.84;71.30;99418.05;220064;1253;139744;-63
2023/03/28 01:17:22;;;;;;;24.00;10.80;;;;;;;-2.82;71.50;99407.31;220267;1253;139708;-63
2023/03/28 01:22:47;;;;;;;15.40;9.10;;;;;;;-2.76;71.37;99417.69;219192;1251;140256;-63
2023/03/28 01:28:17;;;;;;;22.60;11.90;;;;;;;-2.72;71.43;99411.02;219892;1253;225402;-62
2023/03/28 01:33:56;;;;;;;22.10;10.10;;;;;;;-2.65;71.79;99411.17;219212;1253;139845;-62
2023/03/28 01:39:22;;;;;;;18.90;12.40;;;;;;;-2.55;71.53;99407.81;219273;1251;142055;-62
2023/03/28 01:44:40;;;;;;;27.60;11.80;;;;;;;-2.43;71.74;99400.14;218661;1253;141882;-62
2023/03/28 01:49:56;;;;;;;22.10;12.60;;;;;;;-2.33;71.63;99396.67;218988;1254;139576;-62
2023/03/28 01:55:30;;;;;;;21.70;11.40;;;;;;;-2.27;71.51;99390.65;218545;1257;139615;-62
2023/03/28 02:00:53;;;;;;;26.10;13.50;;;;;;;-2.19;71.53;99382.02;218136;1254;140240;-62
2023/03/28 02:05:59;;;;;;;22.50;9.40;;;;;;;-2.13;71.80;99383.77;219094;1253;208866;-62
2023/03/28 02:11:05;;;;;;;19.90;11.80;;;;;;;-2.08;71.80;99379.85;219427;1252;140509;-63
2023/03/28 02:16:12;;;;;;;27.30;10.60;;;;;;;-1.98;71.84;99377.32;219740;1254;139954;-63
2023/03/28 02:21:26;;;;;;;19.30;10.20;;;;;;;-1.91;72.22;99372.34;218902;1253;141093;-63
2023/03/28 02:26:32;;;;;;;19.60;9.00;;;;;;;-1.83;72.20;99370.98;219304;1253;140139;-62
2023/03/28 02:31:37;;;;;;;22.30;9.90;;;;;;;-1.76;72.53;99366.56;220170;1254;140251;-63
2023/03/28 02:36:47;;;;;;;22.50;8.50;;;;;;;-1.68;73.00;99361.41;220348;1254;139856;-62
2023/03/28 02:42:41;;;;;;;10.80;7.70;;;;;;;-1.61;72.99;99358.73;220030;1254;139942;-63
2023/03/28 02:47:55;;;;;;;16.20;8.60;;;;;;;-1.56;72.97;99359.58;220911;1251;139455;-63
2023/03/28 02:53:25;;;;;;;15.90;8.60;;;;;;;-1.50;73.46;99354.90;220171;1254;140446;-64
2023/03/28 02:58:54;;;;;;;19.20;9.10;;;;;;;-1.42;73.79;99347.66;220208;1252;140292;-62
2023/03/28 03:04:00;;;;;;;15.60;8.70;;;;;;;-1.37;73.58;99346.99;220102;1254;151714;-62
2023/03/28 03:09:05;;;;;;;15.90;7.90;;;;;;;-1.33;73.63;99344.77;218281;1254;140613;-63
2023/03/28 03:14:11;;;;;;;14.70;7.10;;;;;;;-1.27;74.30;99342.42;219493;1251;139836;-62
2023/03/28 03:19:15;;;;;;;13.70;7.40;;;;;;;-1.25;74.33;99341.15;218587;1254;140263;-62
2023/03/28 03:24:20;;;;;;;14.20;7.10;;;;;;;-1.23;74.63;99344.98;218978;1253;139762;-61
2023/03/28 03:29:24;;;;;;;12.00;7.70;;;;;;;-1.21;74.47;99344.71;218986;1253;142585;-62
2023/03/28 03:34:41;;;;;;;10.10;7.00;;;;;;;-1.18;74.97;99340.71;218848;1253;140554;-63
2023/03/28 03:39:45;;;;;;;9.70;7.20;;;;;;;-1.17;74.90;99339.86;218733;1254;140232;-65
2023/03/28 03:44:50;;;;;;;12.30;9.00;;;;;;;-1.14;75.56;99338.84;218655;1255;139384;-63
2023/03/28 03:49:55;;;;;;;13.20;8.60;;;;;;;-1.09;75.60;99327.71;218419;1254;139506;-63
2023/03/28 03:55:00;;;;;;;10.40;9.20;;;;;;;-1.09;75.72;99324.30;219352;1254;140408;-64
2023/03/28 04:00:10;;;;;;;10.00;8.50;;;;;;;-1.11;75.73;99325.06;219504;1251;139553;-63
2023/03/28 04:05:16;;;;;;;13.10;8.30;;;;;;;-1.12;75.74;99323.30;219501;1251;139939;-62
2023/03/28 04:10:21;;;;;;;12.00;8.60;;;;;;;-1.11;75.79;99333.23;219654;1253;139993;-61
2023/03/28 04:15:26;;;;;;;8.80;6.60;;;;;;;-1.12;75.99;99330.63;219653;1253;139515;-64
2023/03/28 04:20:31;;;;;;;11.70;7.00;;;;;;;-1.14;76.19;99336.94;219482;1255;139992;-64
2023/03/28 04:25:40;;;;;;;5.10;4.60;;;;;;;-1.12;76.34;99338.48;218914;1252;139554;-63
2023/03/28 04:30:45;;;;;;;8.20;5.60;;;;;;;-1.10;76.21;99342.42;219859;1254;141652;-65
2023/03/28 04:36:00;;;;;;;5.50;4.70;;;;;;;-1.06;76.38;99345.06;220297;1251;141048;-64
2023/03/28 04:41:07;;;;;;;5.20;4.40;;;;;;;-0.96;76.58;99345.59;219798;1251;141438;-65
2023/03/28 04:46:10;;;;;;;4.50;4.10;;;;;;;-0.87;76.80;99343.52;220593;1254;139545;-65
2023/03/28 04:51:14;;;;;;;3.30;3.10;;;;;;;-0.81;76.99;99340.27;220922;1251;140702;-64
2023/03/28 04:56:21;;;;;;;7.60;4.30;;;;;;;-0.76;76.89;99345.61;220626;1251;139561;-64
2023/03/28 05:01:26;;;;;;;4.40;2.70;;;;;;;-0.70;76.98;99346.34;220600;1251;140282;-65
2023/03/28 05:06:30;;;;;;;177.50;76.60;;;;;;;-0.63;77.08;99350.81;219726;1252;141056;-65
2023/03/28 05:11:34;;;;;;;10.40;9.10;;;;;;;-0.55;76.88;99353.57;219729;1251;140085;-65
2023/03/28 05:16:37;;;;;;;5.80;5.20;;;;;;;-0.49;76.74;99350.55;218673;1254;139801;-62
2023/03/28 05:21:41;;;;;;;4.80;4.40;;;;;;;-0.41;76.54;99353.50;219081;1256;139514;-62
2023/03/28 05:26:46;;;;;;;2.90;2.70;;;;;;;-0.39;76.42;99350.47;220039;1251;140235;-64
2023/03/28 05:31:50;;;;;;;3.40;3.10;;;;;;;-0.34;76.24;99348.91;218815;1254;140154;-64
2023/03/28 05:36:58;;;;;;;4.10;3.40;;;;;;;-0.29;76.09;99350.27;218223;1256;141632;-65
2023/03/28 05:42:03;;;;;;;2.70;2.50;;;;;;;-0.26;75.94;99356.85;219333;1251;139506;-62
2023/03/28 05:47:08;;;;;;;3.00;2.60;;;;;;;-0.22;75.67;99357.16;218172;1256;139287;-65
2023/03/28 05:52:12;;;;;;;1.80;1.40;;;;;;;-0.23;75.80;99357.75;219697;1254;207833;-64
2023/03/28 05:57:18;;;;;;;2.40;2.30;;;;;;;-0.20;75.74;99365.45;218586;1255;139347;-62
2023/03/28 06:02:23;;;;;;;3.50;2.10;;;;;;;-0.20;75.71;99371.52;219005;1253;139782;-63
2023/03/28 06:07:28;;;;;;;2.50;2.30;;;;;;;-0.19;75.82;99375.04;219106;1256;141096;-63
2023/03/28 06:12:46;;;;;;;6.40;4.70;;;;;;;-0.10;76.14;99376.20;219461;1254;139870;-63
2023/03/28 06:17:50;;;;;;;3.90;3.60;;;;;;;0.01;76.02;99378.69;220413;1253;139985;-62
2023/03/28 06:22:55;;;;;;;2.40;2.00;;;;;;;0.10;75.87;99383.84;219045;1254;139962;-63
2023/03/28 06:28:00;;;;;;;3.60;2.70;;;;;;;0.14;75.84;99393.80;221179;1252;140390;-64
2023/03/28 06:33:04;;;;;;;2.90;2.70;;;;;;;0.11;75.64;99390.19;220036;1252;141150;-63
2023/03/28 06:38:09;;;;;;;3.50;3.20;;;;;;;0.09;75.85;99401.00;221060;1253;140062;-64
2023/03/28 06:43:13;;;;;;;3.20;2.60;;;;;;;0.10;75.82;99404.23;220908;1251;139515;-63
2023/03/28 06:48:17;;;;;;;3.00;2.60;;;;;;;0.23;76.34;99413.59;220953;1253;139846;-63
2023/03/28 06:53:21;;;;;;;2.80;2.60;;;;;;;0.43;76.05;99417.74;220199;1251;139552;-63
2023/03/28 06:58:24;;;;;;;4.00;3.00;;;;;;;0.48;75.77;99423.40;219448;1251;139831;-62
2023/03/28 07:03:31;;;;;;;6.50;4.40;;;;;;;0.48;76.23;99434.33;219381;1254;141273;-63
2023/03/28 07:08:35;;;;;;;3.70;3.40;;;;;;;0.40;76.15;99444.15;219392;1254;139490;-62
2023/03/28 07:13:39;;;;;;;4.20;3.30;;;;;;;0.26;76.20;99465.47;218663;1254;139601;-61
2023/03/28 07:18:43;;;;;;;2.90;2.30;;;;;;;0.13;76.15;99481.96;219949;1253;139807;-62
2023/03/28 07:23:47;;;;;;;1.50;1.40;;;;;;;-0.06;76.01;99511.27;219287;1254;139222;-61
2023/03/28 07:28:52;;;;;;;1.20;1.10;;;;;;;-0.28;75.50;99517.92;218455;1254;139728;-61
2023/03/28 07:33:56;;;;;;;4.10;1.80;;;;;;;-0.38;76.32;99544.48;219018;1253;252781;-61
2023/03/28 07:39:01;;;;;;;2.40;2.20;;;;;;;-0.30;76.25;99564.98;218489;1255;139999;-64
2023/03/28 07:44:05;;;;;;;2.00;1.80;;;;;;;-0.13;76.54;99580.64;218935;1254;139946;-62
2023/03/28 07:49:09;;;;;;;2.50;2.10;;;;;;;0.26;76.44;99588.52;218710;1254;139913;-64
2023/03/28 07:54:16;;;;;;;2.70;2.40;;;;;;;0.50;76.42;99590.05;219083;1253;139097;-63
2023/03/28 07:59:20;;;;;;;5.30;2.80;;;;;;;0.84;76.15;99597.88;218390;1254;140084;-62
2023/03/28 08:04:24;;;;;;;3.00;2.30;;;;;;;1.10;75.56;99610.41;219961;1251;139448;-63
2023/03/28 08:09:28;;;;;;;3.20;2.50;;;;;;;1.18;74.87;99624.85;220350;1254;141305;-65
2023/03/28 08:14:31;;;;;;;6.50;2.50;;;;;;;1.45;74.52;99637.10;220502;1254;139711;-63
2023/03/28 08:19:35;;;;;;;3.00;2.50;;;;;;;1.98;74.35;99636.49;218266;1251;139426;-64
2023/03/28 08:24:40;;;;;;;2.40;1.90;;;;;;;2.48;73.56;99651.49;220079;1251;139435;-63
2023/03/28 08:29:44;;;;;;;3.90;2.20;;;;;;;2.84;72.62;99655.39;221072;1253;139873;-63
2023/03/28 08:34:48;;;;;;;3.10;2.60;;;;;;;3.18;71.53;99664.64;221085;1251;140123;-63
2023/03/28 08:39:53;;;;;;;4.20;2.30;;;;;;;3.28;70.23;99675.55;220228;1255;140018;-63
2023/03/28 08:45:11;;;;;;;4.10;2.00;;;;;;;3.14;68.79;99687.08;219674;1251;139207;-63
2023/03/28 08:50:22;;;;;;;2.00;1.80;;;;;;;3.19;68.56;99695.61;219610;1255;138857;-63
2023/03/28 08:55:38;;;;;;;3.50;1.70;;;;;;;3.42;67.60;99709.23;219357;1254;140550;-63
2023/03/28 09:00:41;;;;;;;5.00;1.70;;;;;;;3.56;67.49;99717.39;220144;1251;138683;-62
2023/03/28 09:05:50;;;;;;;1.60;1.50;;;;;;;3.51;65.97;99722.45;220145;1254;139280;-62
2023/03/28 09:11:12;;;;;;;1.50;1.40;;;;;;;3.86;66.10;99734.42;218636;1255;138869;-62
2023/03/28 09:16:27;;;;;;;1.90;1.10;;;;;;;4.34;65.38;99753.83;219597;1251;138749;-63
2023/03/28 09:21:31;;;;;;;2.40;2.20;;;;;;;4.60;64.51;99749.42;218578;1254;138568;-62
2023/03/28 09:26:44;;;;;;;2.10;1.70;;;;;;;4.62;63.30;99761.29;218829;1251;138723;-63
2023/03/28 09:31:50;;;;;;;4.00;1.90;;;;;;;4.37;62.60;99767.52;218744;1251;140586;-62
2023/03/28 09:37:04;;;;;;;2.60;1.50;;;;;;;4.13;62.10;99772.52;219792;1252;139144;-62
2023/03/28 09:42:37;;;;;;;5.00;2.00;;;;;;;3.83;61.24;99783.64;218866;1254;139033;-62
2023/03/28 09:47:48;;;;;;;5.20;1.40;;;;;;;3.69;61.18;99790.63;218446;1251;139499;-63
2023/03/28 09:52:55;;;;;;;1.80;1.70;;;;;;;3.50;60.78;99792.51;219773;1253;138477;-64
2023/03/28 09:58:08;;;;;;;1.60;1.30;;;;;;;3.34;60.36;99801.42;219152;1251;138594;-64
2023/03/28 10:03:22;;;;;;;2.20;1.40;;;;;;;3.10;60.01;99810.27;220177;1251;139084;-66
2023/03/28 10:08:35;;;;;;;4.40;1.90;;;;;;;2.84;60.52;99821.36;219054;1255;139945;-64
2023/03/28 10:13:47;;;;;;;3.20;2.10;;;;;;;2.79;60.60;99816.36;218277;1254;138967;-65
2023/03/28 10:18:50;;;;;;;3.00;2.70;;;;;;;3.17;61.00;99817.80;219588;1251;140393;-65
2023/03/28 10:24:06;;;;;;;1.20;1.10;;;;;;;3.13;60.52;99820.54;221301;1251;139276;-69
2023/03/28 10:29:12;;;;;;;2.50;1.50;;;;;;;2.98;60.34;99833.06;221033;1252;139383;-67
2023/03/28 10:34:28;;;;;;;3.00;2.30;;;;;;;2.88;59.74;99841.13;221109;1251;139603;-67
2023/03/28 10:39:32;;;;;;;1.90;1.60;;;;;;;2.88;59.92;99845.15;218243;1251;140522;-67
2023/03/28 10:44:36;;;;;;;1.60;1.40;;;;;;;2.97;59.53;99842.81;221099;1251;138619;-67
2023/03/28 10:49:46;;;;;;;2.20;1.30;;;;;;;3.11;59.50;99845.52;220838;1255;139399;-68
2023/03/28 10:55:10;;;;;;;1.40;1.10;;;;;;;3.38;59.33;99843.17;218270;1251;139395;-66
2023/03/28 11:00:29;;;;;;;2.00;1.30;;;;;;;3.41;58.58;99850.10;220219;1253;139403;-68
2023/03/28 11:06:06;;;;;;;1.60;1.20;;;;;;;3.30;58.27;99855.38;218453;1251;138756;-67
2023/03/28 11:11:23;;;;;;;2.60;1.30;;;;;;;3.13;58.42;99869.63;218719;1251;138757;-64
2023/03/28 11:16:39;;;;;;;2.50;1.60;;;;;;;2.93;58.26;99878.73;220143;1254;139196;-66
2023/03/28 11:21:58;;;;;;;1.60;1.40;;;;;;;3.03;58.54;99873.11;218719;1251;139259;-65
2023/03/28 11:27:13;;;;;;;1.20;1.10;;;;;;;3.71;58.71;99876.63;218626;1251;139373;-66
2023/03/28 11:32:23;;;;;;;1.60;1.20;;;;;;;3.96;58.53;99874.89;219015;1254;138918;-64
2023/03/28 11:37:42;;;;;;;2.60;1.80;;;;;;;3.69;57.61;99881.17;218834;1251;140171;-63
2023/03/28 11:42:50;;;;;;;4.00;1.90;;;;;;;3.36;57.53;99894.15;218484;1254;138368;-63
2023/03/28 11:48:10;;;;;;;2.10;1.70;;;;;;;3.18;57.61;99902.23;219071;1254;140894;-62
2023/03/28 11:53:23;;;;;;;2.20;1.20;;;;;;;3.22;57.81;99901.30;218094;1257;138731;-65
2023/03/28 11:58:32;;;;;;;2.60;1.90;;;;;;;3.18;57.83;99912.41;219746;1254;139004;-63
2023/03/28 12:04:02;;;;;;;2.60;1.60;;;;;;;3.13;57.89;99917.83;218671;1254;138493;-64
2023/03/28 12:09:18;;;;;;;1.90;1.80;;;;;;;3.16;57.90;99924.61;218427;1254;139812;-65
2023/03/28 12:14:34;;;;;;;3.10;2.80;;;;;;;3.32;58.05;99923.48;219682;1251;140603;-65
2023/03/28 12:19:40;;;;;;;2.20;1.50;;;;;;;3.70;57.90;99923.90;220661;1252;138842;-65
2023/03/28 12:24:47;;;;;;;1.20;1.20;;;;;;;3.99;57.45;99924.70;219574;1254;139071;-66
2023/03/28 12:30:24;;;;;;;2.50;1.50;;;;;;;4.09;56.99;99930.57;220725;1253;138780;-65
2023/03/28 12:35:37;;;;;;;2.10;1.50;;;;;;;3.52;56.06;99948.91;220678;1253;139220;-65
2023/03/28 12:40:58;;;;;;;2.70;2.50;;;;;;;2.95;57.30;99969.61;220257;1254;140306;-65
2023/03/28 12:46:06;;;;;;;2.20;1.70;;;;;;;2.61;58.08;99977.63;220132;1254;139642;-65
2023/03/28 12:51:24;;;;;;;2.60;1.80;;;;;;;2.68;58.48;99974.70;219351;1252;139862;-63
2023/03/28 12:56:27;;;;;;;;;;;;;;;3.05;58.56;99967.53;218467;1254;139326;-63
2023/03/28 13:01:44;;;;;;;1.30;1.20;;;;;;;3.25;58.44;99970.16;221241;1253;126275;-64
2023/03/28 13:07:27;;;;;;;2.30;2.10;;;;;;;3.22;57.70;99984.11;218333;1254;140062;-68
2023/03/28 13:12:52;;;;;;;3.50;2.10;;;;;;;2.68;58.46;100010.39;219078;1254;232489;-64
2023/03/28 13:18:26;;;;;;;3.10;1.50;;;;;;;2.11;59.77;100011.65;218236;1251;140571;-65
2023/03/28 13:23:35;;;;;;;2.00;1.60;;;;;;;1.93;60.67;100007.05;218134;1254;139141;-64
2023/03/28 13:28:45;;;;;;;1.60;1.50;;;;;;;2.30;61.26;100005.94;219134;1254;139608;-65
2023/03/28 13:34:01;;;;;;;3.30;1.80;;;;;;;2.80;61.23;100001.77;218466;1254;139933;-62
2023/03/28 13:39:24;;;;;;;2.20;1.90;;;;;;;3.11;60.87;100003.23;218441;1254;138853;-65
2023/03/28 13:44:41;;;;;;;1.60;1.50;;;;;;;3.18;60.81;100011.81;218579;1253;138988;-62
2023/03/28 13:50:08;;;;;;;2.90;2.10;;;;;;;3.14;60.09;100012.67;218996;1252;141016;-64
2023/03/28 13:55:22;;;;;;;1.90;1.70;;;;;;;3.03;59.62;100013.95;218523;1256;138995;-64
2023/03/28 14:00:29;;;;;;;2.20;2.10;;;;;;;2.89;59.05;100024.08;220083;1254;139318;-68
2023/03/28 14:05:41;;;;;;;3.60;1.60;;;;;;;2.62;58.91;100043.19;219641;1256;139982;-67
2023/03/28 14:10:46;;;;;;;1.30;1.30;;;;;;;2.40;58.70;100050.57;219883;1253;139715;-67
2023/03/28 14:15:52;;;;;;;2.00;1.70;;;;;;;2.28;58.56;100052.25;218995;1254;139902;-63
2023/03/28 14:20:55;;;;;;;1.00;1.00;;;;;;;2.42;58.49;100049.63;220936;1253;140440;-67
2023/03/28 14:26:06;;;;;;;1.00;1.00;;;;;;;2.57;58.33;100047.36;221060;1254;138949;-64
2023/03/28 14:31:26;;;;;;;2.00;1.40;;;;;;;2.64;58.07;100046.06;221127;1251;139404;-65
2023/03/28 14:36:35;;;;;;;3.90;1.50;;;;;;;2.38;57.81;100060.52;220658;1254;139388;-66
2023/03/28 14:41:42;;;;;;;4.70;2.60;;;;;;;2.05;58.61;100083.17;220419;1255;139748;-63
2023/03/28 14:46:48;;;;;;;3.10;2.00;;;;;;;1.75;60.37;100087.23;219251;1257;138995;-64
2023/03/28 14:51:58;;;;;;;1.70;1.60;;;;;;;1.69;61.22;100091.02;219604;1254;138905;-63
2023/03/28 14:57:03;;;;;;;9.90;2.40;;;;;;;1.72;61.82;100090.30;219079;1257;138653;-62
2023/03/28 15:02:30;;;;;;;3.00;2.70;;;;;;;1.92;61.79;100087.52;219185;1256;141023;-64
2023/03/28 15:07:37;;;;;;;4.20;3.00;;;;;;;1.94;61.51;100081.93;218558;1256;138995;-64
2023/03/28 15:12:55;;;;;;;7.60;3.00;;;;;;;2.02;61.71;100086.08;219510;1251;139050;-64
2023/03/28 15:18:07;;;;;;;4.90;2.80;;;;;;;2.01;61.25;100094.30;218467;1254;139050;-64
2023/03/28 15:23:23;;;;;;;6.70;2.90;;;;;;;1.80;61.38;100098.74;218748;1257;138794;-68
2023/03/28 15:28:27;;;;;;;3.40;1.80;;;;;;;1.62;61.20;100111.20;219928;1254;141286;-63
2023/03/28 15:33:33;;;;;;;3.50;2.20;;;;;;;1.51;61.06;100110.72;218711;1253;141224;-65
2023/03/28 15:38:39;;;;;;;2.30;1.70;;;;;;;1.51;60.78;100113.08;219228;1254;139352;-65
2023/03/28 15:43:54;;;;;;;2.10;2.00;;;;;;;1.48;60.75;100119.59;219005;1256;139027;-63
2023/03/28 15:49:02;;;;;;;4.70;2.10;;;;;;;1.29;60.55;100130.64;218935;1254;138648;-69
2023/03/28 15:54:12;;;;;;;3.70;2.20;;;;;;;1.15;60.89;100133.50;218472;1254;139541;-65
2023/03/28 15:59:38;;;;;;;2.40;2.00;;;;;;;1.07;61.27;100135.43;219298;1256;139477;-64
2023/03/28 16:05:00;;;;;;;3.00;2.10;;;;;;;1.03;61.28;100140.22;221082;1254;139670;-70
2023/03/28 16:10:06;;;;;;;3.20;1.80;;;;;;;0.89;61.35;100139.98;219597;1253;139793;-73
2023/03/28 16:15:11;;;;;;;3.90;2.50;;;;;;;0.87;61.56;100146.98;221057;1254;138991;-69
2023/03/28 16:20:21;;;;;;;2.00;1.80;;;;;;;0.87;60.59;100159.08;220903;1254;141749;-65
2023/03/28 16:25:27;;;;;;;1.30;1.20;;;;;;;0.87;59.84;100162.63;220841;1256;139366;-70
2023/03/28 16:30:39;;;;;;;1.50;1.20;;;;;;;0.86;59.09;100163.57;221033;1254;140437;-69
2023/03/28 16:35:44;;;;;;;1.60;1.50;;;;;;;0.84;59.01;100173.18;218709;1253;138771;-69
2023/03/28 16:40:49;;;;;;;5.60;1.40;;;;;;;0.84;58.82;100175.18;218283;1256;139831;-65
2023/03/28 16:45:54;;;;;;;2.30;1.70;;;;;;;0.80;58.57;100184.81;219306;1256;140693;-66
2023/03/28 16:51:03;;;;;;;2.40;1.40;;;;;;;0.76;58.78;100194.52;218797;1255;138877;-69
2023/03/28 16:56:13;;;;;;;2.90;2.10;;;;;;;0.73;58.73;100201.12;218517;1256;139456;-66
2023/03/28 17:01:18;;;;;;;3.40;1.90;;;;;;;0.66;58.34;100207.79;218553;1256;139319;-66
2023/03/28 17:06:23;;;;;;;3.40;1.80;;;;;;;0.56;58.13;100208.37;219222;1255;139401;-64
2023/03/28 17:11:30;;;;;;;2.60;1.70;;;;;;;0.49;57.93;100212.98;219320;1256;140006;-71
2023/03/28 17:16:39;;;;;;;3.10;1.90;;;;;;;0.46;57.87;100216.28;218385;1254;139300;-67
2023/03/28 17:21:44;;;;;;;;;;;;;;;0.42;57.84;100224.14;219866;1256;140747;-66
2023/03/28 17:26:50;;;;;;;3.50;1.70;;;;;;;0.36;57.67;100234.70;218644;1254;125654;-65
2023/03/28 17:31:55;;;;;;;1.80;1.60;;;;;;;0.34;57.49;100243.85;219224;1256;138786;-64
2023/03/28 17:37:01;;;;;;;4.80;2.70;;;;;;;0.32;57.41;100247.32;218465;1256;139058;-65
2023/03/28 17:42:06;;;;;;;4.60;2.30;;;;;;;0.29;57.28;100250.99;219852;1253;139698;-64
2023/03/28 17:47:11;;;;;;;4.00;2.10;;;;;;;0.25;57.46;100252.31;219804;1254;138971;-66
2023/03/28 17:52:16;;;;;;;3.50;2.80;;;;;;;0.22;57.16;100261.50;219130;1255;139295;-62
2023/03/28 17:57:21;;;;;;;4.30;2.60;;;;;;;0.20;57.24;100258.90;219396;1257;139480;-66
2023/03/28 18:02:27;;;;;;;6.20;2.70;;;;;;;0.20;57.22;100261.73;220723;1253;139133;-67
2023/03/28 18:07:31;;;;;;;4.40;2.50;;;;;;;0.17;57.22;100268.13;220052;1254;139371;-66
2023/03/28 18:12:36;;;;;;;5.30;2.50;;;;;;;0.17;56.89;100273.04;221127;1254;141121;-65
2023/03/28 18:17:43;;;;;;;13.20;4.00;;;;;;;0.18;56.68;100275.40;221003;1254;139353;-66
2023/03/28 18:22:47;;;;;;;;;;;;;;;0.15;56.14;100285.09;221323;1253;140480;-66
2023/03/28 18:27:54;;;;;;;7.30;2.20;;;;;;;0.11;55.74;100290.02;219919;1253;125062;-64
2023/03/28 18:33:05;;;;;;;9.00;1.90;;;;;;;0.13;55.60;100290.21;220021;1254;140536;-66
2023/03/28 18:38:12;;;;;;;3.80;2.00;;;;;;;0.13;55.48;100291.75;219495;1254;139803;-64
2023/03/28 18:43:20;;;;;;;2.60;1.50;;;;;;;0.11;55.19;100302.30;218532;1253;139356;-63
2023/03/28 18:48:29;;;;;;;3.60;2.30;;;;;;;0.07;54.93;100311.59;220405;1254;139606;-69
2023/03/28 18:53:39;;;;;;;2.70;1.70;;;;;;;0.03;55.05;100314.80;218976;1254;139638;-68
2023/03/28 18:58:49;;;;;;;5.70;2.20;;;;;;;-0.01;54.81;100323.61;219583;1255;139608;-66
2023/03/28 19:03:54;;;;;;;3.90;1.50;;;;;;;-0.07;54.57;100324.00;219034;1254;141073;-67
2023/03/28 19:09:02;;;;;;;4.40;2.50;;;;;;;-0.12;54.72;100321.89;219358;1254;139097;-66
2023/03/28 19:14:08;;;;;;;2.00;1.90;;;;;;;-0.15;54.74;100322.21;219362;1252;158988;-66
2023/03/28 19:19:13;;;;;;;3.60;2.00;;;;;;;-0.19;54.92;100324.20;218526;1257;139782;-66
2023/03/28 19:24:23;;;;;;;2.20;1.90;;;;;;;-0.25;54.77;100327.52;218912;1255;140973;-68
2023/03/28 19:29:30;;;;;;;3.70;2.30;;;;;;;-0.30;54.88;100332.79;218804;1253;139272;-65
2023/03/28 19:34:34;;;;;;;4.90;2.40;;;;;;;-0.37;54.78;100332.94;215933;1253;4102735;-67
2023/03/28 19:39:38;;;;;;;3.80;1.90;;;;;;;-0.42;54.75;100336.35;218715;1254;139620;-65
2023/03/28 19:44:43;;;;;;;6.50;2.60;;;;;;;-0.50;54.87;100341.70;219237;1253;139161;-67
2023/03/28 19:49:48;;;;;;;3.70;3.00;;;;;;;-0.57;54.92;100345.52;218863;1254;140547;-65
2023/03/28 19:54:54;;;;;;;3.20;1.90;;;;;;;-0.63;55.17;100347.20;219721;1253;139556;-66
2023/03/28 20:00:02;;;;;;;4.00;1.90;;;;;;;-0.69;55.00;100349.17;220490;1253;139947;-67
2023/03/28 20:05:06;;;;;;;5.60;2.70;;;;;;;-0.76;55.40;100351.19;219856;1253;139986;-65
2023/03/28 20:10:11;;;;;;;4.60;2.10;;;;;;;-0.83;55.38;100357.98;220471;1253;139358;-65
2023/03/28 20:15:16;;;;;;;3.90;2.10;;;;;;;-0.88;55.58;100358.10;221043;1253;139759;-67
2023/03/28 20:20:22;;;;;;;4.80;3.20;;;;;;;-0.93;56.01;100361.36;219165;1253;139165;-66
2023/03/28 20:25:31;;;;;;;4.90;3.80;;;;;;;-1.00;55.99;100358.92;220979;1253;139858;-67
2023/03/28 20:30:37;;;;;;;6.70;2.60;;;;;;;-1.07;55.97;100361.65;220880;1254;139894;-66
2023/03/28 20:35:42;;;;;;;5.20;2.60;;;;;;;-1.14;55.93;100366.99;220139;1254;139411;-67
2023/03/28 20:40:50;;;;;;;4.10;2.40;;;;;;;-1.18;56.42;100368.08;219639;1253;139322;-66
2023/03/28 20:46:02;;;;;;;4.90;2.50;;;;;;;-1.24;56.60;100371.13;219350;1254;139448;-64
2023/03/28 20:51:14;;;;;;;5.40;3.20;;;;;;;-1.29;56.67;100375.27;219275;1253;139493;-67
2023/03/28 20:56:20;;;;;;;4.00;2.80;;;;;;;-1.34;56.83;100378.17;219336;1256;139303;-64
2023/03/28 21:01:27;;;;;;;7.70;4.00;;;;;;;-1.40;57.26;100379.06;219173;1254;139379;-65
2023/03/28 21:06:36;;;;;;;8.80;4.60;;;;;;;-1.45;57.38;100384.77;219191;1254;140033;-66
2023/03/28 21:11:42;;;;;;;12.30;6.00;;;;;;;-1.50;57.43;100388.89;218753;1254;139616;-66
2023/03/28 21:16:48;;;;;;;17.40;8.50;;;;;;;-1.55;57.59;100391.11;218699;1256;139297;-73
2023/03/28 21:21:55;;;;;;;24.60;11.60;;;;;;;-1.61;57.79;100392.05;218267;1253;139642;-65
2023/03/28 21:27:00;;;;;;;19.70;9.50;;;;;;;-1.70;58.02;100392.86;218123;1253;139701;-63
2023/03/28 21:32:04;;;;;;;36.00;14.10;;;;;;;-1.78;58.23;100395.67;219255;1254;140366;-64
2023/03/28 21:37:08;;;;;;;32.30;14.30;;;;;;;-1.86;58.55;100392.59;219458;1256;140843;-65
2023/03/28 21:42:12;;;;;;;34.60;12.50;;;;;;;-1.95;58.75;100398.23;219004;1254;141042;-65
2023/03/28 21:47:16;;;;;;;17.40;9.60;;;;;;;-2.01;59.03;100406.30;219995;1253;140650;-64
2023/03/28 21:52:23;;;;;;;21.20;9.70;;;;;;;-2.08;59.03;100405.34;219680;1254;140884;-68
2023/03/28 21:57:28;;;;;;;13.90;8.70;;;;;;;-2.12;59.21;100408.70;220546;1253;141260;-66
2023/03/28 22:02:32;;;;;;;11.40;6.90;;;;;;;-2.16;59.62;100408.98;219160;1253;139203;-63
2023/03/28 22:07:37;;;;;;;8.90;4.50;;;;;;;-2.20;59.73;100402.98;221044;1253;140158;-64
2023/03/28 22:12:45;;;;;;;12.50;7.20;;;;;;;-2.25;59.77;100404.40;221004;1253;139717;-68
2023/03/28 22:17:50;;;;;;;9.60;4.60;;;;;;;-2.28;60.17;100402.11;220867;1253;139873;-66
2023/03/28 22:22:59;;;;;;;12.10;4.20;;;;;;;-2.31;60.05;100403.21;221026;1253;139214;-67
2023/03/28 22:28:06;;;;;;;9.90;5.90;;;;;;;-2.32;60.12;100403.02;220990;1253;139528;-66
2023/03/28 22:33:12;;;;;;;7.60;4.40;;;;;;;-2.35;60.14;100404.46;219663;1253;139373;-67
2023/03/28 22:38:17;;;;;;;7.50;4.00;;;;;;;-2.40;60.26;100406.09;221007;1251;139644;-66
2023/03/28 22:43:24;;;;;;;11.30;4.40;;;;;;;-2.43;60.22;100406.04;220442;1253;140202;-63
2023/03/28 22:48:30;;;;;;;12.90;5.90;;;;;;;-2.48;60.66;100406.80;219323;1253;139373;-63
2023/03/28 22:53:36;;;;;;;12.90;6.40;;;;;;;-2.52;60.35;100415.36;220053;1251;139580;-65
2023/03/28 22:58:44;;;;;;;9.30;5.80;;;;;;;-2.58;60.54;100415.02;219656;1253;139633;-63
2023/03/28 23:03:48;;;;;;;12.30;5.70;;;;;;;-2.62;60.87;100411.73;219281;1254;141842;-67
2023/03/28 23:08:52;;;;;;;15.10;5.50;;;;;;;-2.65;61.10;100415.97;218479;1254;139543;-62
2023/03/28 23:13:57;;;;;;;7.90;5.00;;;;;;;-2.69;60.99;100421.39;218919;1254;139479;-62
2023/03/28 23:19:05;;;;;;;12.80;6.10;;;;;;;-2.75;61.29;100420.86;218917;1253;139585;-62
2023/03/28 23:24:10;;;;;;;9.10;5.20;;;;;;;-2.84;61.64;100419.77;218561;1254;139314;-65
2023/03/28 23:29:14;;;;;;;12.10;5.90;;;;;;;-2.92;61.74;100414.37;218242;1252;139383;-66
2023/03/28 23:34:18;;;;;;;9.20;5.20;;;;;;;-2.97;61.84;100415.95;218185;1257;230688;-65
2023/03/28 23:39:24;;;;;;;11.80;5.60;;;;;;;-3.01;61.97;100419.48;219241;1256;140067;-65